Somerset, CO (81434)

7:27 PM MDT on September 02, 2014 (GMT -0600)
KCORIDGW2 | Change Station
CLOSE
Current Station
Personal Weather Station
Location: Ridgway, CO
Elevation: 7326 ft
Nearby Weather Stations

Elev 7326 ft 38.90 °N, 107.45 °W | Updated 1 second ago

Clear
Clear
73.7 °F
Feels Like 76 °F
N
0.0
Wind Variable Wind from SSW
Gusts 0.0 mph

Today
High -- | Low -- °F
--% Chance of Precip.
Yesterday
High -- | Low -- °F
Precip. -- in
6:39 AM 7:37 PM
First Quarter, 57% visible
Pressure 29.86 in
Visibility 10.0 miles
Clouds Scattered Clouds 11000 ft
Heat Index 76 °F
Dew Point 39 °F
Humidity 28%
Rainfall 0.00 in
Snow Depth 0 in , 0 in , 0 in
UV 0 out of 12
Pollen 9.20 out of 12
Air Quality Not available.
Flu Activity Not available.
METAR KASE 030053Z 00000KT 10SM SCT110 21/02 A3017 RMK AO2 SLP110 T02110017

More Conditions Fewer Conditions

Pressure 29.86 in
Visibility 10.0 miles
Clouds Scattered Clouds 11000 ft
Heat Index 76 °F
Dew Point 39 °F
Humidity 28%
Rainfall 0.00 in
Snow Depth 0 in , 0 in , 0 in
UV 0 out of 12
Pollen 9.20 out of 12
Air Quality Not available.
Flu Activity Not available.
METAR KASE 030053Z 00000KT 10SM SCT110 21/02 A3017 RMK AO2 SLP110 T02110017

More Conditions Fewer Conditions

10-Day Weather Forecast

Almanac

Astronomy

Sep. 02, 2014 Rise Set
Actual Time 6:39 AM MDT 7:37 PM MDT
Civil Twilight 6:11 AM MDT 8:05 PM MDT
Nautical Twilight 5:39 AM MDT 8:37 PM MDT
Astronomical Twilight 5:05 AM MDT 9:11 PM MDT
Moon 2:22 PM MDT (9/2) No Moon Set
Length of Visible Light 13h 53m
Length of Day
12h 58m
Tomorrow will be 2m 25s shorter.
First Quarter, 57% of the Moon is Illuminated
Today
First Quarter
Sep 8
Full
Sep 15
Last Quarter
Sep 24
New
Oct 1
First Quarter

Today's Extremes

State Highs State Lows

Community

WunderPhotos

Upload Photos

1,749,826 photos uploaded!

Nearby

Snow Depth

Station Depth Elevation
North Lost Trail 0 in 9200 ft
McClure Pass 0 in 9500 ft
Butte 0 in 10160 ft
Independence Pass 187 in 10600 ft
Mesa Lakes 0 in 10000 ft

Earthquake Activity

City Distance Mag. Time & Date
No recent earthquake activity has been reported nearby.
Minimum magnitude displayed is 2.5.

Coastal Water Temperatures

Place Temperature
No Stations Reporting

Nearby Weather Stations